createdAt,value
2023-01-04T00:00:01.666Z,13.37
2023-01-04T00:02:30.522Z,13.38
2023-01-04T00:04:57.315Z,13.43
2023-01-04T00:07:24.065Z,13.47
2023-01-04T00:09:50.790Z,13.49
2023-01-04T00:12:17.565Z,13.52
2023-01-04T00:14:44.269Z,13.54
2023-01-04T00:17:10.993Z,13.55
2023-01-04T00:19:37.825Z,13.58
2023-01-04T00:22:04.878Z,13.58
2023-01-04T00:24:31.625Z,13.57
2023-01-04T00:26:58.399Z,13.59
2023-01-04T00:29:25.275Z,13.59
2023-01-04T00:31:52.183Z,13.60
2023-01-04T00:34:19.409Z,13.60
2023-01-04T00:36:47.017Z,13.61
2023-01-04T00:39:16.446Z,13.64
2023-01-04T00:42:02.706Z,13.65
2023-01-04T00:44:31.534Z,13.64
2023-01-04T00:47:00.793Z,13.65
2023-01-04T00:49:28.935Z,13.64
2023-01-04T00:51:55.816Z,13.64
2023-01-04T00:54:23.003Z,13.67
2023-01-04T00:56:51.206Z,13.67
2023-01-04T00:59:20.639Z,13.68
2023-01-04T01:01:48.147Z,13.67
2023-01-04T01:04:19.957Z,13.69
2023-01-04T01:06:47.170Z,13.66
2023-01-04T01:09:17.069Z,13.64
2023-01-04T01:11:44.265Z,13.61
2023-01-04T01:14:19.590Z,13.60
2023-01-04T01:16:56.706Z,13.55
2023-01-04T01:19:27.652Z,13.53
2023-01-04T01:21:56.892Z,13.49
2023-01-04T01:24:23.672Z,13.48
2023-01-04T01:26:50.442Z,13.45
2023-01-04T01:29:17.197Z,13.43
2023-01-04T01:31:44.061Z,13.43
2023-01-04T01:34:10.891Z,13.43
2023-01-04T01:36:37.956Z,13.42
2023-01-04T01:39:06.361Z,13.39
2023-01-04T01:41:35.267Z,13.41
2023-01-04T01:44:07.042Z,13.37
2023-01-04T01:46:51.301Z,13.39
2023-01-04T01:49:30.758Z,13.37
2023-01-04T01:52:05.067Z,13.35
2023-01-04T01:54:42.850Z,13.40
2023-01-04T01:57:16.217Z,13.42
2023-01-04T01:59:48.225Z,13.43
2023-01-04T02:02:15.168Z,13.45
2023-01-04T02:04:48.029Z,13.47
2023-01-04T02:07:21.102Z,13.46
2023-01-04T02:09:50.023Z,13.43
2023-01-04T02:12:17.004Z,13.43
2023-01-04T02:14:48.334Z,13.41
2023-01-04T02:17:30.912Z,13.39
2023-01-04T02:20:25.284Z,13.35
2023-01-04T02:23:39.719Z,13.31
2023-01-04T02:26:51.403Z,13.25
2023-01-04T02:30:03.038Z,13.19
2023-01-04T02:32:59.636Z,13.15
2023-01-04T02:35:49.825Z,13.14
2023-01-04T02:38:59.443Z,13.12
2023-01-04T02:41:36.681Z,13.10
2023-01-04T02:44:37.493Z,13.12
2023-01-04T02:47:46.765Z,13.11
2023-01-04T02:50:33.118Z,13.08
2023-01-04T02:53:22.610Z,13.12
2023-01-04T02:56:15.467Z,13.15
2023-01-04T02:59:19.822Z,13.17
2023-01-04T03:02:36.282Z,13.18
2023-01-04T03:05:50.635Z,13.19
2023-01-04T03:08:36.356Z,13.19
2023-01-04T03:11:28.352Z,13.22
2023-01-04T03:14:30.872Z,13.29
2023-01-04T03:17:03.251Z,13.34
2023-01-04T03:19:50.889Z,13.36
2023-01-04T03:22:47.796Z,13.36
2023-01-04T03:25:38.669Z,13.38
2023-01-04T03:28:26.657Z,13.41
2023-01-04T03:31:33.051Z,13.42
2023-01-04T03:34:18.214Z,13.43
2023-01-04T03:37:28.324Z,13.46
2023-01-04T03:40:38.884Z,13.46
2023-01-04T03:43:41.742Z,13.45
2023-01-04T03:46:54.074Z,13.42
2023-01-04T03:49:23.482Z,13.39
2023-01-04T03:51:57.461Z,13.39
2023-01-04T03:54:33.358Z,13.37
2023-01-04T03:57:01.540Z,13.37
2023-01-04T03:59:28.632Z,13.34
2023-01-04T04:01:56.313Z,13.33
2023-01-04T04:04:41.586Z,13.31
2023-01-04T04:07:26.852Z,13.28
2023-01-04T04:09:53.572Z,13.26
2023-01-04T04:12:20.310Z,13.27
2023-01-04T04:14:48.117Z,13.29
2023-01-04T04:17:14.879Z,13.29
2023-01-04T04:19:41.581Z,13.31
2023-01-04T04:22:08.305Z,13.35
2023-01-04T04:24:35.002Z,13.36
2023-01-04T04:27:01.737Z,13.38
2023-01-04T04:29:28.432Z,13.37
2023-01-04T04:31:55.232Z,13.38
2023-01-04T04:34:22.107Z,13.40
2023-01-04T04:36:48.877Z,13.40
2023-01-04T04:39:15.820Z,13.41
2023-01-04T04:41:42.598Z,13.44
2023-01-04T04:44:13.313Z,13.44
2023-01-04T04:46:41.132Z,13.46
2023-01-04T04:49:09.445Z,13.48
2023-01-04T04:51:37.051Z,13.48
2023-01-04T04:54:06.894Z,13.51
2023-01-04T04:56:34.262Z,13.53
2023-01-04T04:59:00.967Z,13.55
2023-01-04T05:01:27.772Z,13.59
2023-01-04T05:03:54.738Z,13.59
2023-01-04T05:06:21.522Z,13.61
2023-01-04T05:08:48.311Z,13.60
2023-01-04T05:11:15.632Z,13.59
2023-01-04T05:13:42.823Z,13.61
2023-01-04T05:16:10.253Z,13.61
2023-01-04T05:18:37.356Z,13.65
2023-01-04T05:21:04.184Z,13.64
2023-01-04T05:23:31.001Z,13.68
2023-01-04T05:26:01.064Z,13.70
2023-01-04T05:28:28.623Z,13.73
2023-01-04T05:30:55.995Z,13.75
2023-01-04T05:33:32.580Z,13.79
2023-01-04T05:36:04.000Z,13.81
2023-01-04T05:38:31.107Z,13.83
2023-01-04T05:40:58.004Z,13.87
2023-01-04T05:43:25.036Z,13.88
2023-01-04T05:45:56.692Z,13.94
2023-01-04T05:48:24.755Z,13.97
2023-01-04T05:50:52.893Z,13.99
2023-01-04T05:53:19.744Z,13.99
2023-01-04T05:55:48.879Z,14.01
2023-01-04T05:58:16.066Z,14.03
2023-01-04T06:00:42.987Z,14.05
2023-01-04T06:03:09.812Z,14.05
2023-01-04T06:05:36.571Z,14.07
2023-01-04T06:08:03.404Z,14.09
2023-01-04T06:10:30.159Z,14.12
2023-01-04T06:12:56.944Z,14.13
2023-01-04T06:15:23.678Z,14.17
2023-01-04T06:17:50.425Z,14.19
2023-01-04T06:20:17.289Z,14.22
2023-01-04T06:22:44.500Z,14.24
2023-01-04T06:25:11.324Z,14.28
2023-01-04T06:27:38.264Z,14.31
2023-01-04T06:30:05.797Z,14.75
2023-01-04T06:32:32.552Z,14.77
2023-01-04T06:34:59.360Z,14.69
2023-01-04T06:37:26.184Z,14.62
2023-01-04T06:39:53.843Z,14.58
2023-01-04T06:42:39.250Z,14.54
2023-01-04T06:45:06.738Z,14.52
2023-01-04T06:47:33.472Z,14.55
2023-01-04T06:50:00.244Z,14.58
2023-01-04T06:52:26.983Z,14.62
2023-01-04T06:54:53.703Z,14.63
2023-01-04T06:57:20.804Z,14.64
2023-01-04T06:59:47.587Z,14.65
2023-01-04T07:02:16.122Z,14.67
2023-01-04T07:04:43.747Z,14.68
2023-01-04T07:07:10.651Z,14.69
2023-01-04T07:09:38.291Z,14.70
2023-01-04T07:12:05.727Z,14.71
2023-01-04T07:14:32.470Z,14.74
2023-01-04T07:16:59.171Z,14.74
2023-01-04T07:19:25.952Z,14.75
2023-01-04T07:21:53.777Z,14.77
2023-01-04T07:24:24.704Z,14.78
2023-01-04T07:26:56.525Z,14.78
2023-01-04T07:29:23.255Z,14.76
2023-01-04T07:31:52.407Z,14.76
2023-01-04T07:34:22.598Z,14.78
2023-01-04T07:36:50.698Z,14.74
2023-01-04T07:39:22.073Z,14.74
2023-01-04T07:41:50.531Z,14.75
2023-01-04T07:44:21.615Z,14.74
2023-01-04T07:46:48.684Z,14.77
2023-01-04T07:49:18.505Z,14.77
2023-01-04T07:51:47.998Z,14.77
2023-01-04T07:54:17.410Z,14.76
2023-01-04T07:56:46.730Z,14.77
2023-01-04T07:59:16.139Z,14.78
2023-01-04T08:01:43.363Z,14.80
2023-01-04T08:04:13.026Z,14.82
2023-01-04T08:06:41.144Z,14.83
2023-01-04T08:09:08.925Z,14.86
2023-01-04T08:11:35.785Z,14.86
2023-01-04T08:14:03.503Z,14.88
2023-01-04T08:16:33.711Z,14.91
2023-01-04T08:19:18.106Z,14.92
2023-01-04T08:21:46.046Z,14.95
2023-01-04T08:24:20.966Z,14.98
2023-01-04T08:26:47.693Z,15.01
2023-01-04T08:29:14.560Z,15.05
2023-01-04T08:31:41.967Z,15.09
2023-01-04T08:34:10.201Z,15.10
2023-01-04T08:36:52.166Z,15.12
2023-01-04T08:39:19.648Z,15.18
2023-01-04T08:42:09.828Z,15.17
2023-01-04T08:44:39.453Z,15.18
2023-01-04T08:47:06.345Z,15.21
2023-01-04T08:49:33.229Z,15.24
2023-01-04T08:52:00.008Z,15.30
2023-01-04T08:54:26.743Z,15.32
2023-01-04T08:56:53.455Z,15.34
2023-01-04T08:59:20.234Z,15.34
2023-01-04T09:01:47.225Z,15.38
2023-01-04T09:04:14.160Z,15.36
2023-01-04T09:06:41.042Z,15.42
2023-01-04T09:09:07.991Z,15.44
2023-01-04T09:11:35.376Z,15.46
2023-01-04T09:14:08.036Z,15.49
2023-01-04T09:16:37.302Z,15.49
2023-01-04T09:19:05.693Z,15.51
2023-01-04T09:21:32.671Z,15.51
2023-01-04T09:23:59.499Z,15.51
2023-01-04T09:26:26.623Z,15.55
2023-01-04T09:28:55.780Z,15.57
2023-01-04T09:31:28.414Z,15.59
2023-01-04T09:34:15.749Z,15.62
2023-01-04T09:36:43.726Z,15.64
2023-01-04T09:39:16.764Z,15.66
2023-01-04T09:41:59.714Z,15.68
2023-01-04T09:45:03.335Z,15.71
2023-01-04T09:47:21.280Z,15.74
2023-01-04T09:50:00.211Z,15.78
2023-01-04T09:52:54.661Z,15.81
2023-01-04T09:55:39.033Z,15.84
2023-01-04T09:58:36.346Z,15.89
2023-01-04T10:01:11.011Z,15.96
2023-01-04T10:03:39.945Z,16.01
2023-01-04T10:06:12.570Z,16.05
2023-01-04T10:08:43.481Z,16.08
2023-01-04T10:11:46.038Z,16.09
2023-01-04T10:14:34.349Z,16.08
2023-01-04T10:21:33.458Z,15.91
2023-01-04T10:24:28.319Z,15.81
2023-01-04T10:27:06.273Z,15.78
2023-01-04T10:30:16.337Z,15.78
2023-01-04T10:32:46.383Z,15.74
2023-01-04T10:35:24.489Z,15.73
2023-01-04T10:38:15.728Z,15.75
2023-01-04T10:40:46.343Z,15.76
2023-01-04T10:43:21.789Z,15.78
2023-01-04T10:46:02.091Z,15.83
2023-01-04T10:48:50.045Z,15.87
2023-01-04T10:51:33.915Z,15.89
2023-01-04T10:54:28.494Z,15.88
2023-01-04T10:57:18.959Z,15.90
2023-01-04T11:00:02.366Z,15.94
2023-01-04T11:02:55.785Z,15.94
2023-01-04T11:05:33.792Z,15.98
2023-01-04T11:08:15.858Z,16.01
2023-01-04T11:10:53.331Z,16.06
2023-01-04T11:13:20.358Z,16.07
2023-01-04T11:15:47.943Z,16.09
2023-01-04T11:18:15.634Z,16.09
2023-01-04T11:20:42.853Z,16.12
2023-01-04T11:23:18.236Z,16.12
2023-01-04T11:26:13.532Z,16.10
2023-01-04T11:29:00.531Z,16.10
2023-01-04T11:31:50.849Z,16.10
2023-01-04T11:34:17.700Z,16.08
2023-01-04T11:36:47.401Z,16.08
2023-01-04T11:39:26.129Z,16.10
2023-01-04T11:42:03.317Z,16.10
2023-01-04T11:44:32.788Z,16.10
2023-01-04T11:47:20.556Z,16.07
2023-01-04T11:49:48.283Z,16.08
2023-01-04T11:52:38.709Z,16.06
2023-01-04T11:55:29.557Z,16.02
2023-01-04T11:58:17.572Z,15.99
2023-01-04T12:00:57.656Z,15.96
2023-01-04T12:03:38.487Z,15.93
2023-01-04T12:06:33.961Z,15.89
2023-01-04T12:09:01.192Z,15.86
2023-01-04T12:11:43.144Z,15.87
2023-01-04T12:14:28.317Z,15.82
2023-01-04T12:16:55.507Z,15.83
2023-01-04T12:19:23.624Z,15.83
2023-01-04T12:21:56.011Z,15.84
2023-01-04T12:24:28.656Z,15.84
2023-01-04T12:26:56.244Z,15.84
2023-01-04T12:29:22.969Z,15.85
2023-01-04T12:32:05.653Z,15.86
2023-01-04T12:34:34.079Z,15.86
2023-01-04T12:37:05.859Z,15.90
2023-01-04T12:39:44.646Z,15.89
2023-01-04T12:42:24.587Z,15.90
2023-01-04T12:44:52.131Z,15.88
2023-01-04T12:47:37.777Z,15.88
2023-01-04T12:50:27.347Z,15.84
2023-01-04T12:55:45.537Z,15.82
2023-01-04T13:01:27.594Z,15.79
2023-01-04T13:04:39.297Z,15.74
2023-01-04T13:07:18.076Z,15.75
2023-01-04T13:09:53.850Z,15.73
2023-01-04T13:12:43.107Z,15.73
2023-01-04T13:15:27.586Z,15.73
2023-01-04T13:17:54.591Z,15.70
2023-01-04T13:20:25.564Z,15.72
2023-01-04T13:22:56.868Z,15.73
2023-01-04T13:25:25.238Z,15.70
2023-01-04T13:28:18.590Z,15.73
2023-01-04T13:30:47.009Z,15.72
2023-01-04T13:33:28.865Z,15.73
2023-01-04T13:36:10.762Z,15.71
2023-01-04T13:38:40.494Z,15.73
2023-01-04T13:41:21.861Z,15.74
2023-01-04T13:44:32.930Z,15.72
2023-01-04T13:47:11.186Z,15.72
2023-01-04T13:49:40.888Z,15.74
2023-01-04T13:52:53.116Z,15.73
2023-01-04T13:55:30.225Z,15.71
2023-01-04T13:58:06.964Z,15.71
2023-01-04T14:00:52.618Z,15.71
2023-01-04T14:03:37.097Z,15.73
2023-01-04T14:06:09.992Z,15.70
2023-01-04T14:08:47.823Z,15.70
2023-01-04T14:11:44.372Z,15.70
2023-01-04T14:14:27.477Z,15.69
2023-01-04T14:17:10.178Z,15.68
2023-01-04T14:19:59.532Z,15.68
2023-01-04T14:22:38.436Z,15.62
2023-01-04T14:25:36.733Z,15.63
2023-01-04T14:28:32.254Z,15.63
2023-01-04T14:30:58.919Z,15.64
2023-01-04T14:33:40.664Z,15.64
2023-01-04T14:36:09.977Z,15.65
2023-01-04T14:38:44.065Z,15.66
2023-01-04T14:41:39.911Z,15.68
2023-01-04T14:44:15.496Z,15.64
2023-01-04T14:46:47.040Z,15.62
2023-01-04T14:49:15.096Z,15.64
2023-01-04T14:51:52.562Z,15.67
2023-01-04T14:54:25.115Z,15.66
2023-01-04T14:56:57.046Z,15.64
2023-01-04T14:59:24.837Z,15.62
2023-01-04T15:01:54.500Z,15.62
2023-01-04T15:04:22.323Z,15.58
2023-01-04T15:06:58.959Z,15.58
2023-01-04T15:09:26.732Z,15.58
2023-01-04T15:11:53.704Z,15.57
2023-01-04T15:14:20.472Z,15.58
2023-01-04T15:16:47.555Z,15.56
2023-01-04T15:19:14.410Z,15.55
2023-01-04T15:21:41.927Z,15.56
2023-01-04T15:24:10.296Z,15.56
2023-01-04T15:26:39.494Z,15.55
2023-01-04T15:29:08.301Z,15.51
2023-01-04T15:31:39.722Z,15.51
2023-01-04T15:34:09.131Z,15.50
2023-01-04T15:36:38.590Z,15.49
2023-01-04T15:39:06.186Z,15.48
2023-01-04T15:41:51.644Z,15.46
2023-01-04T15:44:18.432Z,15.41
2023-01-04T15:46:45.450Z,15.40
2023-01-04T15:49:17.239Z,15.39
2023-01-04T15:51:45.247Z,15.39
2023-01-04T15:54:12.438Z,15.39
2023-01-04T15:56:39.319Z,15.38
2023-01-04T15:59:06.109Z,15.37
2023-01-04T16:01:32.862Z,15.38
2023-01-04T16:03:59.739Z,15.39
2023-01-04T16:06:26.754Z,15.40
2023-01-04T16:08:53.586Z,15.41
2023-01-04T16:11:23.391Z,15.39
2023-01-04T16:13:52.775Z,15.38
2023-01-04T16:16:24.587Z,15.39
2023-01-04T16:18:54.234Z,15.42
2023-01-04T16:21:27.256Z,15.42
2023-01-04T16:24:04.524Z,15.45
2023-01-04T16:26:33.844Z,15.45
2023-01-04T16:29:00.834Z,15.45
2023-01-04T16:31:34.254Z,15.45
2023-01-04T16:34:01.649Z,15.39
2023-01-04T16:36:29.494Z,15.36
2023-01-04T16:38:56.255Z,15.33
2023-01-04T16:41:24.884Z,15.29
2023-01-04T16:44:01.219Z,15.25
2023-01-04T16:46:33.585Z,15.22
2023-01-04T16:49:09.546Z,15.19
2023-01-04T16:51:38.537Z,15.15
2023-01-04T16:54:11.897Z,15.15
2023-01-04T16:56:40.727Z,15.17
2023-01-04T16:59:08.783Z,15.17
2023-01-04T17:01:43.581Z,15.19
2023-01-04T17:04:14.781Z,15.15
2023-01-04T17:06:45.152Z,15.16
2023-01-04T17:09:21.145Z,15.16
2023-01-04T17:14:44.562Z,15.06
2023-01-04T17:17:11.335Z,15.06
2023-01-04T17:19:38.107Z,15.05
2023-01-04T17:22:05.093Z,15.04
2023-01-04T17:24:31.810Z,15.02
2023-01-04T17:26:58.526Z,15.01
2023-01-04T17:29:25.392Z,15.01
2023-01-04T17:31:52.242Z,15.02
2023-01-04T17:34:23.039Z,15.05
2023-01-04T17:36:50.510Z,15.05
2023-01-04T17:39:17.265Z,15.05
2023-01-04T17:41:43.995Z,15.06
2023-01-04T17:44:10.911Z,15.06
2023-01-04T17:46:38.124Z,15.05
2023-01-04T17:49:22.153Z,15.04
2023-01-04T17:51:50.956Z,15.07
2023-01-04T17:54:18.307Z,15.10
2023-01-04T17:56:45.048Z,15.14
2023-01-04T17:59:12.459Z,15.14
2023-01-04T18:01:39.270Z,15.16
2023-01-04T18:04:06.077Z,15.18
2023-01-04T18:06:36.022Z,15.19
2023-01-04T18:09:06.283Z,15.20
2023-01-04T18:11:33.780Z,15.21
2023-01-04T18:14:02.913Z,15.21
2023-01-04T18:16:32.933Z,15.21
2023-01-04T18:19:00.880Z,15.22
2023-01-04T18:21:31.129Z,15.22
2023-01-04T18:24:35.275Z,15.23
2023-01-04T18:29:35.009Z,15.23
2023-01-04T18:32:01.935Z,15.24
2023-01-04T18:34:28.724Z,15.26
2023-01-04T18:36:55.611Z,15.25
2023-01-04T18:39:22.467Z,15.26
2023-01-04T18:41:49.195Z,15.27
2023-01-04T18:44:32.663Z,15.25
2023-01-04T18:47:00.479Z,15.24
2023-01-04T18:49:27.207Z,15.22
2023-01-04T18:51:54.003Z,15.20
2023-01-04T18:54:21.476Z,15.22
2023-01-04T18:56:48.580Z,15.24
2023-01-04T18:59:17.212Z,15.26
2023-01-04T19:01:45.444Z,15.27
2023-01-04T19:04:13.584Z,15.31
2023-01-04T19:06:40.866Z,15.32
2023-01-04T19:09:07.845Z,15.32
2023-01-04T19:11:35.882Z,15.33
2023-01-04T19:14:04.023Z,15.35
2023-01-04T19:16:31.557Z,15.36
2023-01-04T19:19:00.309Z,15.40
2023-01-04T19:21:28.202Z,15.41
2023-01-04T19:23:55.863Z,15.42
2023-01-04T19:26:23.404Z,15.41
2023-01-04T19:28:51.655Z,15.44
2023-01-04T19:31:21.229Z,15.47
2023-01-04T19:33:48.817Z,15.47
2023-01-04T19:36:18.823Z,15.51
2023-01-04T19:38:46.159Z,15.51
2023-01-04T19:41:29.093Z,15.50
2023-01-04T19:43:57.963Z,15.49
2023-01-04T19:46:24.973Z,15.47
2023-01-04T19:48:51.811Z,15.47
2023-01-04T19:51:18.811Z,15.45
2023-01-04T19:53:46.134Z,15.46
2023-01-04T19:56:14.521Z,15.42
2023-01-04T19:58:41.559Z,15.39
2023-01-04T20:01:17.530Z,15.35
2023-01-04T20:03:45.127Z,15.33
2023-01-04T20:06:14.751Z,15.32
2023-01-04T20:08:42.566Z,15.33
2023-01-04T20:11:10.979Z,15.30
2023-01-04T20:13:39.041Z,15.28
2023-01-04T20:16:06.711Z,15.27
2023-01-04T20:18:34.426Z,15.24
2023-01-04T20:21:01.749Z,15.18
2023-01-04T20:23:28.474Z,15.19
2023-01-04T20:25:55.552Z,15.16
2023-01-04T20:28:25.070Z,15.18
2023-01-04T20:31:04.174Z,15.20
2023-01-04T20:33:31.721Z,15.21
2023-01-04T20:35:58.740Z,15.22
2023-01-04T20:38:25.658Z,15.24
2023-01-04T20:40:52.474Z,15.26
2023-01-04T20:43:34.336Z,15.27
2023-01-04T20:46:04.635Z,15.25
2023-01-04T20:48:31.779Z,15.22
2023-01-04T20:50:58.544Z,15.24
2023-01-04T20:53:25.372Z,15.24
2023-01-04T20:55:52.156Z,15.21
2023-01-04T20:58:19.049Z,15.20
2023-01-04T21:00:47.629Z,15.21
2023-01-04T21:03:15.511Z,15.20
2023-01-04T21:05:44.813Z,15.21
2023-01-04T21:08:13.320Z,15.20
2023-01-04T21:10:42.832Z,15.21
2023-01-04T21:13:11.749Z,15.24
2023-01-04T21:15:39.800Z,15.26
2023-01-04T21:18:07.304Z,15.27
2023-01-04T21:20:34.282Z,15.31
2023-01-04T21:23:01.156Z,15.34
2023-01-04T21:25:27.881Z,15.37
2023-01-04T21:27:54.649Z,15.40
2023-01-04T21:30:21.627Z,15.41
2023-01-04T21:32:48.569Z,15.43
2023-01-04T21:35:15.468Z,15.44
2023-01-04T21:37:42.295Z,15.44
2023-01-04T21:40:09.762Z,15.45
2023-01-04T21:42:36.552Z,15.45
2023-01-04T21:45:04.295Z,15.44
2023-01-04T21:47:31.772Z,15.45
2023-01-04T21:49:58.573Z,15.45
2023-01-04T21:52:25.707Z,15.46
2023-01-04T21:54:52.865Z,15.46
2023-01-04T21:57:19.648Z,15.47
2023-01-04T21:59:46.511Z,15.48
2023-01-04T22:02:19.429Z,15.49
2023-01-04T22:04:47.529Z,15.47
2023-01-04T22:07:14.609Z,15.47
2023-01-04T22:09:41.464Z,15.46
2023-01-04T22:12:08.403Z,15.43
2023-01-04T22:14:35.253Z,15.41
2023-01-04T22:17:02.016Z,15.39
2023-01-04T22:19:28.842Z,15.36
2023-01-04T22:21:55.612Z,15.31
2023-01-04T22:24:22.983Z,15.29
2023-01-04T22:26:50.629Z,15.27
2023-01-04T22:29:18.550Z,15.24
2023-01-04T22:31:45.358Z,15.21
2023-01-04T22:34:12.430Z,15.21
2023-01-04T22:36:39.182Z,15.17
2023-01-04T22:39:06.892Z,15.16
2023-01-04T22:41:34.016Z,15.12
2023-01-04T22:44:04.636Z,15.07
2023-01-04T22:46:34.628Z,15.01
2023-01-04T22:49:02.161Z,14.98
2023-01-04T22:51:30.440Z,14.94
2023-01-04T22:54:00.182Z,14.91
2023-01-04T22:56:28.681Z,14.87
2023-01-04T22:58:57.574Z,14.84
2023-01-04T23:01:28.728Z,14.82
2023-01-04T23:03:57.825Z,14.78
2023-01-04T23:06:26.420Z,14.74
2023-01-04T23:08:59.718Z,14.72
2023-01-04T23:11:29.568Z,14.67
2023-01-04T23:13:57.313Z,14.63
2023-01-04T23:16:31.456Z,14.60
2023-01-04T23:18:59.169Z,14.54
2023-01-04T23:21:25.974Z,14.55
2023-01-04T23:23:52.706Z,14.53
2023-01-04T23:26:23.239Z,14.51
2023-01-04T23:28:51.059Z,14.51
2023-01-04T23:31:22.021Z,14.51
2023-01-04T23:33:55.043Z,14.51
2023-01-04T23:36:34.710Z,14.50
2023-01-04T23:39:05.573Z,14.47
2023-01-04T23:41:45.311Z,14.46
2023-01-04T23:44:25.111Z,14.45
2023-01-04T23:47:12.140Z,14.43
2023-01-04T23:49:39.644Z,14.41
2023-01-04T23:52:07.589Z,14.40
2023-01-04T23:54:35.004Z,14.38
2023-01-04T23:57:01.787Z,14.38
2023-01-04T23:59:28.485Z,14.38
